Etusivu
METAR-TAF:

METAR-TAF

Lentoasemat :

Calhoun, Georgia, Yhdysvallat

Leveyspiiri: 34-27-20N, Pituuspiiri: 084-56-21W, korkeus merenpinnasta: 198 m

Tämänhetkinen sää

Tämä raportti tehtiin 24 minuuttia sitten, kello 01.35 UTC
tyyntä
Lämpötila 5°C
Kosteus 100%
Ilmanpaine 1023 hPa
Näkyvyys: 16.1 km
Pilvistä 4400 ft:n korkeudessa

METAR: KCZL 110135Z AUTO 00000KT 10SM OVC044 05/05 A3022 RMK AO2

Aika: 20:59 (01:59 UTC)


TAF: puuttuu

Säähavainnot ja -ennusteet yli 4000 lentoasemalta (METAR- ja TAF-raportit).

Käytössä olevat sääasemat on merkitty karttaan keltaisilla ja punaisilla pisteillä.

Aseta hiiri pisteen päälle nähdäksesi sääaseman nimen.

Klikkaa sitten nähdäksesi säähavainnot ja -ennusteet.

Kartan vaihtaminen: klikkaa mustalla rastilla varustettuja vihreitä pisteitä, niin voit zoomata sisään; viivalla varustettua vihreää pistettä, niin voit zoomata ulos tai vihreitä nuolia, niin pääset viereisille kartoille.


METAR-TAF: